sensor_id;sensor_type;location;lat;lon;timestamp;P1;durP1;ratioP1;P2;durP2;ratioP2
21645;SDS011;10984;45.712;4.800;2023-02-04T00:00:48;4.97;;;1.17;;
21645;SDS011;10984;45.712;4.800;2023-02-04T00:03:14;2.45;;;1.00;;
21645;SDS011;10984;45.712;4.800;2023-02-04T00:05:40;5.00;;;1.40;;
21645;SDS011;10984;45.712;4.800;2023-02-04T00:08:07;3.35;;;1.40;;
21645;SDS011;10984;45.712;4.800;2023-02-04T00:10:32;1.92;;;0.90;;
21645;SDS011;10984;45.712;4.800;2023-02-04T00:12:59;3.60;;;1.02;;
21645;SDS011;10984;45.712;4.800;2023-02-04T00:15:24;2.25;;;1.00;;
21645;SDS011;10984;45.712;4.800;2023-02-04T00:17:50;2.28;;;0.95;;
21645;SDS011;10984;45.712;4.800;2023-02-04T00:20:16;5.57;;;1.13;;
21645;SDS011;10984;45.712;4.800;2023-02-04T00:22:43;3.10;;;1.00;;
21645;SDS011;10984;45.712;4.800;2023-02-04T00:25:10;6.13;;;1.33;;
21645;SDS011;10984;45.712;4.800;2023-02-04T00:27:36;2.72;;;1.05;;
21645;SDS011;10984;45.712;4.800;2023-02-04T00:32:47;7.07;;;1.25;;
21645;SDS011;10984;45.712;4.800;2023-02-04T00:35:12;3.17;;;1.08;;
21645;SDS011;10984;45.712;4.800;2023-02-04T00:37:38;2.53;;;1.13;;
21645;SDS011;10984;45.712;4.800;2023-02-04T00:40:03;2.75;;;1.00;;
21645;SDS011;10984;45.712;4.800;2023-02-04T00:42:29;2.05;;;0.80;;
21645;SDS011;10984;45.712;4.800;2023-02-04T00:44:55;3.65;;;1.08;;
21645;SDS011;10984;45.712;4.800;2023-02-04T00:47:21;4.88;;;1.13;;
21645;SDS011;10984;45.712;4.800;2023-02-04T00:49:46;2.75;;;0.93;;
21645;SDS011;10984;45.712;4.800;2023-02-04T00:52:12;2.58;;;1.27;;
21645;SDS011;10984;45.712;4.800;2023-02-04T00:54:37;1.90;;;0.98;;
21645;SDS011;10984;45.712;4.800;2023-02-04T00:57:03;3.20;;;1.20;;
21645;SDS011;10984;45.712;4.800;2023-02-04T00:59:28;2.13;;;1.13;;
21645;SDS011;10984;45.712;4.800;2023-02-04T01:01:54;2.88;;;1.10;;
21645;SDS011;10984;45.712;4.800;2023-02-04T01:04:20;3.53;;;1.42;;
21645;SDS011;10984;45.712;4.800;2023-02-04T01:06:45;3.97;;;1.52;;
21645;SDS011;10984;45.712;4.800;2023-02-04T01:09:11;2.78;;;1.08;;
21645;SDS011;10984;45.712;4.800;2023-02-04T01:11:37;3.20;;;1.13;;
21645;SDS011;10984;45.712;4.800;2023-02-04T01:14:02;3.50;;;1.13;;
21645;SDS011;10984;45.712;4.800;2023-02-04T01:16:28;2.10;;;0.93;;
21645;SDS011;10984;45.712;4.800;2023-02-04T01:18:53;4.50;;;1.52;;
21645;SDS011;10984;45.712;4.800;2023-02-04T01:21:20;3.20;;;1.10;;
21645;SDS011;10984;45.712;4.800;2023-02-04T01:23:49;4.93;;;1.60;;
21645;SDS011;10984;45.712;4.800;2023-02-04T01:26:15;2.65;;;1.08;;
21645;SDS011;10984;45.712;4.800;2023-02-04T01:28:42;2.67;;;1.17;;
21645;SDS011;10984;45.712;4.800;2023-02-04T01:31:07;4.18;;;1.33;;
21645;SDS011;10984;45.712;4.800;2023-02-04T01:33:33;3.45;;;0.90;;
21645;SDS011;10984;45.712;4.800;2023-02-04T01:35:58;2.33;;;1.20;;
21645;SDS011;10984;45.712;4.800;2023-02-04T01:38:24;3.22;;;1.15;;
21645;SDS011;10984;45.712;4.800;2023-02-04T01:40:50;2.47;;;1.38;;
21645;SDS011;10984;45.712;4.800;2023-02-04T01:43:16;3.95;;;1.38;;
21645;SDS011;10984;45.712;4.800;2023-02-04T01:45:42;4.40;;;1.33;;
21645;SDS011;10984;45.712;4.800;2023-02-04T01:48:09;2.33;;;1.25;;
21645;SDS011;10984;45.712;4.800;2023-02-04T01:50:37;2.28;;;1.30;;
21645;SDS011;10984;45.712;4.800;2023-02-04T01:53:02;2.72;;;1.20;;
21645;SDS011;10984;45.712;4.800;2023-02-04T01:55:29;3.35;;;1.35;;
21645;SDS011;10984;45.712;4.800;2023-02-04T01:57:56;3.47;;;1.20;;
21645;SDS011;10984;45.712;4.800;2023-02-04T02:03:07;3.08;;;1.25;;
21645;SDS011;10984;45.712;4.800;2023-02-04T02:05:36;3.03;;;1.40;;
21645;SDS011;10984;45.712;4.800;2023-02-04T02:08:04;3.97;;;1.80;;
21645;SDS011;10984;45.712;4.800;2023-02-04T02:10:30;2.63;;;1.13;;
21645;SDS011;10984;45.712;4.800;2023-02-04T02:12:57;3.10;;;1.20;;
21645;SDS011;10984;45.712;4.800;2023-02-04T02:15:23;2.53;;;1.10;;
21645;SDS011;10984;45.712;4.800;2023-02-04T02:17:50;1.83;;;1.00;;
21645;SDS011;10984;45.712;4.800;2023-02-04T02:20:17;5.40;;;1.40;;
21645;SDS011;10984;45.712;4.800;2023-02-04T02:25:48;3.33;;;1.30;;
21645;SDS011;10984;45.712;4.800;2023-02-04T02:28:16;2.15;;;1.17;;
21645;SDS011;10984;45.712;4.800;2023-02-04T02:30:43;1.40;;;0.73;;
21645;SDS011;10984;45.712;4.800;2023-02-04T02:33:10;3.03;;;1.20;;
21645;SDS011;10984;45.712;4.800;2023-02-04T02:35:39;2.35;;;1.15;;
21645;SDS011;10984;45.712;4.800;2023-02-04T02:38:07;2.08;;;0.90;;
21645;SDS011;10984;45.712;4.800;2023-02-04T02:40:34;5.07;;;1.20;;
21645;SDS011;10984;45.712;4.800;2023-02-04T02:42:59;2.55;;;0.95;;
21645;SDS011;10984;45.712;4.800;2023-02-04T02:45:26;6.07;;;1.27;;
21645;SDS011;10984;45.712;4.800;2023-02-04T02:47:54;2.65;;;1.05;;
21645;SDS011;10984;45.712;4.800;2023-02-04T02:50:23;4.57;;;1.17;;
21645;SDS011;10984;45.712;4.800;2023-02-04T02:52:52;3.22;;;1.25;;
21645;SDS011;10984;45.712;4.800;2023-02-04T02:55:19;2.25;;;1.02;;
21645;SDS011;10984;45.712;4.800;2023-02-04T02:57:47;2.03;;;0.85;;
21645;SDS011;10984;45.712;4.800;2023-02-04T03:05:54;3.38;;;1.38;;
21645;SDS011;10984;45.712;4.800;2023-02-04T03:08:23;1.80;;;0.95;;
21645;SDS011;10984;45.712;4.800;2023-02-04T03:10:49;2.65;;;0.93;;
21645;SDS011;10984;45.712;4.800;2023-02-04T03:13:15;2.92;;;1.27;;
21645;SDS011;10984;45.712;4.800;2023-02-04T03:15:41;2.38;;;1.02;;
21645;SDS011;10984;45.712;4.800;2023-02-04T03:18:09;3.15;;;1.15;;
21645;SDS011;10984;45.712;4.800;2023-02-04T03:20:35;2.63;;;1.20;;
21645;SDS011;10984;45.712;4.800;2023-02-04T03:23:03;5.88;;;1.42;;
21645;SDS011;10984;45.712;4.800;2023-02-04T03:25:28;4.28;;;1.20;;
21645;SDS011;10984;45.712;4.800;2023-02-04T03:27:54;3.25;;;1.15;;
21645;SDS011;10984;45.712;4.800;2023-02-04T03:30:22;3.60;;;1.23;;
21645;SDS011;10984;45.712;4.800;2023-02-04T03:32:49;2.35;;;0.98;;
21645;SDS011;10984;45.712;4.800;2023-02-04T03:35:15;3.17;;;1.30;;
21645;SDS011;10984;45.712;4.800;2023-02-04T03:37:41;1.98;;;0.85;;
21645;SDS011;10984;45.712;4.800;2023-02-04T03:40:08;5.05;;;1.70;;
21645;SDS011;10984;45.712;4.800;2023-02-04T03:42:34;2.95;;;1.20;;
21645;SDS011;10984;45.712;4.800;2023-02-04T03:45:00;2.30;;;1.00;;
21645;SDS011;10984;45.712;4.800;2023-02-04T03:47:25;7.95;;;1.65;;
21645;SDS011;10984;45.712;4.800;2023-02-04T03:49:51;2.33;;;1.20;;
21645;SDS011;10984;45.712;4.800;2023-02-04T03:52:17;1.67;;;0.90;;
21645;SDS011;10984;45.712;4.800;2023-02-04T03:54:44;3.78;;;1.30;;
21645;SDS011;10984;45.712;4.800;2023-02-04T03:57:10;2.63;;;1.05;;
21645;SDS011;10984;45.712;4.800;2023-02-04T03:59:35;3.55;;;1.10;;
21645;SDS011;10984;45.712;4.800;2023-02-04T04:02:01;3.25;;;1.50;;
21645;SDS011;10984;45.712;4.800;2023-02-04T04:04:27;3.33;;;1.50;;
21645;SDS011;10984;45.712;4.800;2023-02-04T04:06:52;5.05;;;1.60;;
21645;SDS011;10984;45.712;4.800;2023-02-04T04:09:18;2.90;;;1.30;;
21645;SDS011;10984;45.712;4.800;2023-02-04T04:11:44;2.72;;;1.20;;
21645;SDS011;10984;45.712;4.800;2023-02-04T04:14:09;3.40;;;1.25;;
21645;SDS011;10984;45.712;4.800;2023-02-04T04:16:35;4.28;;;1.35;;
21645;SDS011;10984;45.712;4.800;2023-02-04T04:19:01;4.78;;;1.50;;
21645;SDS011;10984;45.712;4.800;2023-02-04T04:21:26;3.15;;;1.38;;
21645;SDS011;10984;45.712;4.800;2023-02-04T04:23:52;5.22;;;1.42;;
21645;SDS011;10984;45.712;4.800;2023-02-04T04:26:17;10.75;;;2.15;;
21645;SDS011;10984;45.712;4.800;2023-02-04T04:28:43;2.55;;;1.23;;
21645;SDS011;10984;45.712;4.800;2023-02-04T04:31:09;3.45;;;1.55;;
21645;SDS011;10984;45.712;4.800;2023-02-04T04:33:34;3.10;;;1.55;;
21645;SDS011;10984;45.712;4.800;2023-02-04T04:36:00;2.97;;;1.40;;
21645;SDS011;10984;45.712;4.800;2023-02-04T04:38:26;7.45;;;2.63;;
21645;SDS011;10984;45.712;4.800;2023-02-04T04:40:51;3.58;;;1.70;;
21645;SDS011;10984;45.712;4.800;2023-02-04T04:43:17;3.33;;;1.50;;
21645;SDS011;10984;45.712;4.800;2023-02-04T04:45:43;4.80;;;1.40;;
21645;SDS011;10984;45.712;4.800;2023-02-04T04:48:09;2.47;;;1.20;;
21645;SDS011;10984;45.712;4.800;2023-02-04T04:50:35;4.10;;;1.20;;
21645;SDS011;10984;45.712;4.800;2023-02-04T04:53:00;2.90;;;1.23;;
21645;SDS011;10984;45.712;4.800;2023-02-04T04:55:26;3.75;;;1.77;;
21645;SDS011;10984;45.712;4.800;2023-02-04T04:57:52;3.85;;;1.42;;
21645;SDS011;10984;45.712;4.800;2023-02-04T05:00:19;3.65;;;1.30;;
21645;SDS011;10984;45.712;4.800;2023-02-04T05:02:45;3.00;;;1.30;;
21645;SDS011;10984;45.712;4.800;2023-02-04T05:05:11;3.78;;;1.30;;
21645;SDS011;10984;45.712;4.800;2023-02-04T05:07:37;3.70;;;1.60;;
21645;SDS011;10984;45.712;4.800;2023-02-04T05:10:03;4.15;;;1.23;;
21645;SDS011;10984;45.712;4.800;2023-02-04T05:12:29;2.67;;;1.50;;
21645;SDS011;10984;45.712;4.800;2023-02-04T05:14:55;3.45;;;1.70;;
21645;SDS011;10984;45.712;4.800;2023-02-04T05:17:21;3.88;;;1.80;;
21645;SDS011;10984;45.712;4.800;2023-02-04T05:19:46;5.60;;;2.20;;
21645;SDS011;10984;45.712;4.800;2023-02-04T05:22:12;4.65;;;1.73;;
21645;SDS011;10984;45.712;4.800;2023-02-04T05:24:38;3.30;;;1.40;;
21645;SDS011;10984;45.712;4.800;2023-02-04T05:27:03;3.53;;;1.70;;
21645;SDS011;10984;45.712;4.800;2023-02-04T05:29:29;5.25;;;1.60;;
21645;SDS011;10984;45.712;4.800;2023-02-04T05:31:55;3.47;;;1.70;;
21645;SDS011;10984;45.712;4.800;2023-02-04T05:34:20;3.35;;;1.90;;
21645;SDS011;10984;45.712;4.800;2023-02-04T05:36:46;4.18;;;1.90;;
21645;SDS011;10984;45.712;4.800;2023-02-04T05:39:12;4.00;;;1.65;;
21645;SDS011;10984;45.712;4.800;2023-02-04T05:41:37;5.35;;;1.95;;
21645;SDS011;10984;45.712;4.800;2023-02-04T05:44:03;5.13;;;2.17;;
21645;SDS011;10984;45.712;4.800;2023-02-04T05:46:29;4.93;;;2.40;;
21645;SDS011;10984;45.712;4.800;2023-02-04T05:48:55;3.97;;;1.83;;
21645;SDS011;10984;45.712;4.800;2023-02-04T05:51:20;4.78;;;2.10;;
21645;SDS011;10984;45.712;4.800;2023-02-04T05:53:46;4.60;;;2.15;;
21645;SDS011;10984;45.712;4.800;2023-02-04T05:56:11;4.53;;;2.15;;
21645;SDS011;10984;45.712;4.800;2023-02-04T05:58:38;4.00;;;2.13;;
21645;SDS011;10984;45.712;4.800;2023-02-04T06:01:03;3.95;;;1.80;;
21645;SDS011;10984;45.712;4.800;2023-02-04T06:03:29;4.43;;;2.28;;
21645;SDS011;10984;45.712;4.800;2023-02-04T06:05:55;4.43;;;2.10;;
21645;SDS011;10984;45.712;4.800;2023-02-04T06:08:21;5.15;;;2.60;;
21645;SDS011;10984;45.712;4.800;2023-02-04T06:10:47;4.60;;;2.25;;
21645;SDS011;10984;45.712;4.800;2023-02-04T06:13:13;3.60;;;1.70;;
21645;SDS011;10984;45.712;4.800;2023-02-04T06:15:39;5.05;;;2.42;;
21645;SDS011;10984;45.712;4.800;2023-02-04T06:18:05;5.75;;;2.60;;
21645;SDS011;10984;45.712;4.800;2023-02-04T06:20:31;4.07;;;2.13;;
21645;SDS011;10984;45.712;4.800;2023-02-04T06:22:56;3.75;;;1.92;;
21645;SDS011;10984;45.712;4.800;2023-02-04T06:25:22;6.57;;;2.13;;
21645;SDS011;10984;45.712;4.800;2023-02-04T06:27:48;6.72;;;2.65;;
21645;SDS011;10984;45.712;4.800;2023-02-04T06:30:15;5.38;;;2.38;;
21645;SDS011;10984;45.712;4.800;2023-02-04T06:32:41;4.50;;;2.20;;
21645;SDS011;10984;45.712;4.800;2023-02-04T06:35:07;4.18;;;1.83;;
21645;SDS011;10984;45.712;4.800;2023-02-04T06:37:33;4.57;;;2.30;;
21645;SDS011;10984;45.712;4.800;2023-02-04T06:39:59;3.70;;;2.05;;
21645;SDS011;10984;45.712;4.800;2023-02-04T06:42:24;3.80;;;2.10;;
21645;SDS011;10984;45.712;4.800;2023-02-04T06:44:50;4.00;;;2.20;;
21645;SDS011;10984;45.712;4.800;2023-02-04T06:47:16;5.53;;;2.17;;
21645;SDS011;10984;45.712;4.800;2023-02-04T06:49:42;5.00;;;2.50;;
21645;SDS011;10984;45.712;4.800;2023-02-04T06:52:08;3.95;;;2.13;;
21645;SDS011;10984;45.712;4.800;2023-02-04T06:54:33;4.32;;;2.50;;
21645;SDS011;10984;45.712;4.800;2023-02-04T06:56:59;4.97;;;2.25;;
21645;SDS011;10984;45.712;4.800;2023-02-04T07:02:14;4.75;;;2.38;;
21645;SDS011;10984;45.712;4.800;2023-02-04T07:04:40;5.30;;;2.47;;
21645;SDS011;10984;45.712;4.800;2023-02-04T07:07:07;5.90;;;2.10;;
21645;SDS011;10984;45.712;4.800;2023-02-04T07:09:34;6.55;;;2.22;;
21645;SDS011;10984;45.712;4.800;2023-02-04T07:12:00;4.50;;;2.10;;
21645;SDS011;10984;45.712;4.800;2023-02-04T07:14:25;5.03;;;2.30;;
21645;SDS011;10984;45.712;4.800;2023-02-04T07:16:51;9.27;;;2.72;;
21645;SDS011;10984;45.712;4.800;2023-02-04T07:19:16;5.68;;;2.80;;
21645;SDS011;10984;45.712;4.800;2023-02-04T07:21:42;10.88;;;3.25;;
21645;SDS011;10984;45.712;4.800;2023-02-04T07:24:08;7.57;;;2.70;;
21645;SDS011;10984;45.712;4.800;2023-02-04T07:26:33;5.10;;;2.63;;
21645;SDS011;10984;45.712;4.800;2023-02-04T07:28:59;5.95;;;2.65;;
21645;SDS011;10984;45.712;4.800;2023-02-04T07:31:25;9.50;;;3.10;;
21645;SDS011;10984;45.712;4.800;2023-02-04T07:33:50;4.93;;;2.78;;
21645;SDS011;10984;45.712;4.800;2023-02-04T07:36:16;4.88;;;2.70;;
21645;SDS011;10984;45.712;4.800;2023-02-04T07:38:41;6.45;;;3.60;;
21645;SDS011;10984;45.712;4.800;2023-02-04T07:41:07;10.90;;;3.05;;
21645;SDS011;10984;45.712;4.800;2023-02-04T07:43:33;11.40;;;3.13;;
21645;SDS011;10984;45.712;4.800;2023-02-04T07:45:58;10.30;;;3.05;;
21645;SDS011;10984;45.712;4.800;2023-02-04T07:48:24;8.23;;;3.10;;
21645;SDS011;10984;45.712;4.800;2023-02-04T07:50:49;6.53;;;2.95;;
21645;SDS011;10984;45.712;4.800;2023-02-04T07:53:15;8.70;;;2.97;;
21645;SDS011;10984;45.712;4.800;2023-02-04T07:55:41;4.90;;;2.35;;
21645;SDS011;10984;45.712;4.800;2023-02-04T07:58:06;11.20;;;2.92;;
21645;SDS011;10984;45.712;4.800;2023-02-04T08:00:32;8.75;;;3.15;;
21645;SDS011;10984;45.712;4.800;2023-02-04T08:02:57;6.78;;;3.17;;
21645;SDS011;10984;45.712;4.800;2023-02-04T08:05:23;7.20;;;3.42;;
21645;SDS011;10984;45.712;4.800;2023-02-04T08:07:49;8.80;;;3.38;;
21645;SDS011;10984;45.712;4.800;2023-02-04T08:10:14;6.60;;;2.55;;
21645;SDS011;10984;45.712;4.800;2023-02-04T08:12:40;6.30;;;2.80;;
21645;SDS011;10984;45.712;4.800;2023-02-04T08:15:06;7.18;;;3.28;;
21645;SDS011;10984;45.712;4.800;2023-02-04T08:17:32;4.88;;;2.75;;
21645;SDS011;10984;45.712;4.800;2023-02-04T08:19:58;5.00;;;2.78;;
21645;SDS011;10984;45.712;4.800;2023-02-04T08:22:24;4.95;;;2.58;;
21645;SDS011;10984;45.712;4.800;2023-02-04T08:24:49;7.28;;;2.55;;
21645;SDS011;10984;45.712;4.800;2023-02-04T08:27:15;6.47;;;2.90;;
21645;SDS011;10984;45.712;4.800;2023-02-04T08:29:41;5.78;;;3.35;;
21645;SDS011;10984;45.712;4.800;2023-02-04T08:32:06;4.95;;;2.75;;
21645;SDS011;10984;45.712;4.800;2023-02-04T08:34:34;5.97;;;3.05;;
21645;SDS011;10984;45.712;4.800;2023-02-04T08:37:00;5.28;;;2.80;;
21645;SDS011;10984;45.712;4.800;2023-02-04T08:39:25;6.20;;;3.30;;
21645;SDS011;10984;45.712;4.800;2023-02-04T08:41:51;6.20;;;2.85;;
21645;SDS011;10984;45.712;4.800;2023-02-04T08:44:17;6.55;;;3.00;;
21645;SDS011;10984;45.712;4.800;2023-02-04T08:46:42;5.55;;;3.00;;
21645;SDS011;10984;45.712;4.800;2023-02-04T08:49:08;6.25;;;2.88;;
21645;SDS011;10984;45.712;4.800;2023-02-04T08:51:34;4.72;;;2.38;;
21645;SDS011;10984;45.712;4.800;2023-02-04T08:53:59;6.90;;;2.58;;
21645;SDS011;10984;45.712;4.800;2023-02-04T08:56:25;7.00;;;3.08;;
21645;SDS011;10984;45.712;4.800;2023-02-04T08:58:50;4.82;;;2.30;;
21645;SDS011;10984;45.712;4.800;2023-02-04T09:01:34;5.53;;;2.55;;
21645;SDS011;10984;45.712;4.800;2023-02-04T09:04:00;4.22;;;2.25;;
21645;SDS011;10984;45.712;4.800;2023-02-04T09:06:26;4.70;;;2.50;;
21645;SDS011;10984;45.712;4.800;2023-02-04T09:08:51;4.03;;;2.10;;
21645;SDS011;10984;45.712;4.800;2023-02-04T09:11:17;3.80;;;2.13;;
21645;SDS011;10984;45.712;4.800;2023-02-04T09:13:42;4.07;;;2.10;;
21645;SDS011;10984;45.712;4.800;2023-02-04T09:16:08;5.22;;;2.47;;
21645;SDS011;10984;45.712;4.800;2023-02-04T09:18:34;3.53;;;1.80;;
21645;SDS011;10984;45.712;4.800;2023-02-04T09:21:00;4.30;;;1.90;;
21645;SDS011;10984;45.712;4.800;2023-02-04T09:23:26;3.47;;;1.90;;
21645;SDS011;10984;45.712;4.800;2023-02-04T09:25:52;6.40;;;2.75;;
21645;SDS011;10984;45.712;4.800;2023-02-04T09:28:17;3.78;;;1.75;;
21645;SDS011;10984;45.712;4.800;2023-02-04T09:30:43;3.42;;;1.80;;
21645;SDS011;10984;45.712;4.800;2023-02-04T09:33:10;3.92;;;1.92;;
21645;SDS011;10984;45.712;4.800;2023-02-04T09:35:37;3.90;;;1.80;;
21645;SDS011;10984;45.712;4.800;2023-02-04T09:38:03;3.35;;;1.40;;
21645;SDS011;10984;45.712;4.800;2023-02-04T09:40:29;3.30;;;1.70;;
21645;SDS011;10984;45.712;4.800;2023-02-04T09:42:58;4.70;;;1.70;;
21645;SDS011;10984;45.712;4.800;2023-02-04T09:45:26;6.13;;;1.92;;
21645;SDS011;10984;45.712;4.800;2023-02-04T09:47:57;3.50;;;1.52;;
21645;SDS011;10984;45.712;4.800;2023-02-04T09:50:26;5.55;;;1.85;;
21645;SDS011;10984;45.712;4.800;2023-02-04T09:52:53;4.15;;;1.90;;
21645;SDS011;10984;45.712;4.800;2023-02-04T09:55:22;3.30;;;1.70;;
21645;SDS011;10984;45.712;4.800;2023-02-04T10:03:40;5.15;;;1.20;;
21645;SDS011;10984;45.712;4.800;2023-02-04T10:06:14;3.67;;;1.58;;
21645;SDS011;10984;45.712;4.800;2023-02-04T10:08:41;3.47;;;1.23;;
21645;SDS011;10984;45.712;4.800;2023-02-04T10:11:08;4.78;;;0.80;;
21645;SDS011;10984;45.712;4.800;2023-02-04T10:16:21;2.03;;;0.98;;
21645;SDS011;10984;45.712;4.800;2023-02-04T10:18:54;4.38;;;1.92;;
21645;SDS011;10984;45.712;4.800;2023-02-04T10:21:23;4.10;;;1.33;;
21645;SDS011;10984;45.712;4.800;2023-02-04T10:27:05;2.45;;;0.98;;
21645;SDS011;10984;45.712;4.800;2023-02-04T10:29:32;4.40;;;1.30;;
21645;SDS011;10984;45.712;4.800;2023-02-04T10:31:57;2.38;;;0.90;;
21645;SDS011;10984;45.712;4.800;2023-02-04T10:39:53;1.70;;;0.80;;
21645;SDS011;10984;45.712;4.800;2023-02-04T10:47:56;2.35;;;1.08;;
21645;SDS011;10984;45.712;4.800;2023-02-04T10:50:25;3.60;;;1.00;;
21645;SDS011;10984;45.712;4.800;2023-02-04T10:52:54;3.17;;;1.00;;
21645;SDS011;10984;45.712;4.800;2023-02-04T10:58:27;3.97;;;1.35;;
21645;SDS011;10984;45.712;4.800;2023-02-04T11:00:54;1.92;;;1.00;;
21645;SDS011;10984;45.712;4.800;2023-02-04T11:08:49;2.35;;;1.10;;
21645;SDS011;10984;45.712;4.800;2023-02-04T11:14:01;2.45;;;1.15;;
21645;SDS011;10984;45.712;4.800;2023-02-04T11:19:13;3.25;;;1.42;;
21645;SDS011;10984;45.712;4.800;2023-02-04T11:21:41;2.15;;;1.00;;
21645;SDS011;10984;45.712;4.800;2023-02-04T11:32:55;3.63;;;1.40;;
21645;SDS011;10984;45.712;4.800;2023-02-04T11:35:26;2.53;;;1.00;;
21645;SDS011;10984;45.712;4.800;2023-02-04T11:37:53;2.60;;;1.13;;
21645;SDS011;10984;45.712;4.800;2023-02-04T11:42:45;6.10;;;1.30;;
21645;SDS011;10984;45.712;4.800;2023-02-04T11:45:12;2.90;;;1.20;;
21645;SDS011;10984;45.712;4.800;2023-02-04T11:47:58;2.17;;;1.08;;
21645;SDS011;10984;45.712;4.800;2023-02-04T11:53:30;2.58;;;1.02;;
21645;SDS011;10984;45.712;4.800;2023-02-04T11:55:57;2.67;;;1.10;;
21645;SDS011;10984;45.712;4.800;2023-02-04T11:58:23;2.80;;;1.13;;
21645;SDS011;10984;45.712;4.800;2023-02-04T12:00:53;3.28;;;1.60;;
21645;SDS011;10984;45.712;4.800;2023-02-04T12:06:19;3.70;;;1.95;;
21645;SDS011;10984;45.712;4.800;2023-02-04T12:08:45;3.38;;;1.75;;
21645;SDS011;10984;45.712;4.800;2023-02-04T12:11:21;1.77;;;0.77;;
21645;SDS011;10984;45.712;4.800;2023-02-04T12:14:09;2.92;;;1.23;;
21645;SDS011;10984;45.712;4.800;2023-02-04T12:19:26;4.07;;;1.80;;
21645;SDS011;10984;45.712;4.800;2023-02-04T12:21:52;8.43;;;3.15;;
21645;SDS011;10984;45.712;4.800;2023-02-04T12:24:19;6.10;;;1.27;;
21645;SDS011;10984;45.712;4.800;2023-02-04T12:26:45;2.70;;;1.00;;
21645;SDS011;10984;45.712;4.800;2023-02-04T12:29:10;2.90;;;0.73;;
21645;SDS011;10984;45.712;4.800;2023-02-04T12:31:36;1.23;;;0.60;;
21645;SDS011;10984;45.712;4.800;2023-02-04T12:34:02;1.75;;;0.70;;
21645;SDS011;10984;45.712;4.800;2023-02-04T12:36:27;3.85;;;1.30;;
21645;SDS011;10984;45.712;4.800;2023-02-04T12:38:54;2.42;;;1.00;;
21645;SDS011;10984;45.712;4.800;2023-02-04T12:41:20;3.33;;;1.33;;
21645;SDS011;10984;45.712;4.800;2023-02-04T12:43:45;3.03;;;1.30;;
21645;SDS011;10984;45.712;4.800;2023-02-04T12:46:14;3.92;;;1.50;;
21645;SDS011;10984;45.712;4.800;2023-02-04T12:48:40;3.08;;;1.55;;
21645;SDS011;10984;45.712;4.800;2023-02-04T12:51:06;3.20;;;1.30;;
21645;SDS011;10984;45.712;4.800;2023-02-04T12:53:32;2.63;;;1.40;;
21645;SDS011;10984;45.712;4.800;2023-02-04T12:55:58;5.15;;;2.13;;
21645;SDS011;10984;45.712;4.800;2023-02-04T12:58:23;3.88;;;2.05;;
21645;SDS011;10984;45.712;4.800;2023-02-04T13:00:49;1.58;;;0.75;;
21645;SDS011;10984;45.712;4.800;2023-02-04T13:03:14;2.17;;;0.95;;
21645;SDS011;10984;45.712;4.800;2023-02-04T13:05:40;3.85;;;1.42;;
21645;SDS011;10984;45.712;4.800;2023-02-04T13:08:06;3.42;;;1.58;;
21645;SDS011;10984;45.712;4.800;2023-02-04T13:10:31;3.05;;;1.33;;
21645;SDS011;10984;45.712;4.800;2023-02-04T13:12:57;1.98;;;0.90;;
21645;SDS011;10984;45.712;4.800;2023-02-04T13:15:24;3.47;;;1.63;;
21645;SDS011;10984;45.712;4.800;2023-02-04T13:17:50;1.98;;;0.90;;
21645;SDS011;10984;45.712;4.800;2023-02-04T13:20:15;2.83;;;1.10;;
21645;SDS011;10984;45.712;4.800;2023-02-04T13:22:41;3.28;;;1.25;;
21645;SDS011;10984;45.712;4.800;2023-02-04T13:25:07;2.67;;;1.23;;
21645;SDS011;10984;45.712;4.800;2023-02-04T13:27:35;4.47;;;1.65;;
21645;SDS011;10984;45.712;4.800;2023-02-04T13:30:02;3.00;;;1.00;;
21645;SDS011;10984;45.712;4.800;2023-02-04T13:32:29;2.45;;;1.20;;
21645;SDS011;10984;45.712;4.800;2023-02-04T13:34:54;4.63;;;2.20;;
21645;SDS011;10984;45.712;4.800;2023-02-04T13:37:20;3.88;;;1.23;;
21645;SDS011;10984;45.712;4.800;2023-02-04T13:39:46;3.28;;;1.50;;
21645;SDS011;10984;45.712;4.800;2023-02-04T13:42:11;5.07;;;2.58;;
21645;SDS011;10984;45.712;4.800;2023-02-04T13:44:37;3.72;;;1.35;;
21645;SDS011;10984;45.712;4.800;2023-02-04T13:47:02;2.75;;;1.27;;
21645;SDS011;10984;45.712;4.800;2023-02-04T13:49:28;1.92;;;1.20;;
21645;SDS011;10984;45.712;4.800;2023-02-04T13:51:54;2.75;;;1.20;;
21645;SDS011;10984;45.712;4.800;2023-02-04T13:54:19;2.70;;;1.05;;
21645;SDS011;10984;45.712;4.800;2023-02-04T13:56:45;2.85;;;1.00;;
21645;SDS011;10984;45.712;4.800;2023-02-04T13:59:11;2.60;;;1.27;;
21645;SDS011;10984;45.712;4.800;2023-02-04T14:01:36;1.90;;;0.85;;
21645;SDS011;10984;45.712;4.800;2023-02-04T14:04:03;2.20;;;0.90;;
21645;SDS011;10984;45.712;4.800;2023-02-04T14:06:29;1.85;;;0.95;;
21645;SDS011;10984;45.712;4.800;2023-02-04T14:09:13;1.98;;;0.93;;
21645;SDS011;10984;45.712;4.800;2023-02-04T14:11:39;2.88;;;1.17;;
21645;SDS011;10984;45.712;4.800;2023-02-04T14:14:05;2.33;;;1.08;;
21645;SDS011;10984;45.712;4.800;2023-02-04T14:16:31;2.28;;;1.08;;
21645;SDS011;10984;45.712;4.800;2023-02-04T14:18:56;2.35;;;0.88;;
21645;SDS011;10984;45.712;4.800;2023-02-04T14:21:22;1.25;;;0.70;;
21645;SDS011;10984;45.712;4.800;2023-02-04T14:23:48;1.50;;;0.73;;
21645;SDS011;10984;45.712;4.800;2023-02-04T14:26:13;1.73;;;1.00;;
21645;SDS011;10984;45.712;4.800;2023-02-04T14:28:39;1.50;;;0.80;;
21645;SDS011;10984;45.712;4.800;2023-02-04T14:31:04;2.28;;;0.88;;
21645;SDS011;10984;45.712;4.800;2023-02-04T14:33:30;2.80;;;1.60;;
21645;SDS011;10984;45.712;4.800;2023-02-04T14:35:56;2.50;;;1.25;;
21645;SDS011;10984;45.712;4.800;2023-02-04T14:38:21;2.38;;;1.08;;
21645;SDS011;10984;45.712;4.800;2023-02-04T14:40:47;2.08;;;1.30;;
21645;SDS011;10984;45.712;4.800;2023-02-04T14:43:13;3.28;;;1.10;;
21645;SDS011;10984;45.712;4.800;2023-02-04T14:45:39;2.60;;;1.08;;
21645;SDS011;10984;45.712;4.800;2023-02-04T14:48:05;3.67;;;1.30;;
21645;SDS011;10984;45.712;4.800;2023-02-04T14:50:32;3.08;;;1.65;;
21645;SDS011;10984;45.712;4.800;2023-02-04T14:52:57;3.22;;;1.30;;
21645;SDS011;10984;45.712;4.800;2023-02-04T14:55:23;3.88;;;1.80;;
21645;SDS011;10984;45.712;4.800;2023-02-04T14:57:50;3.20;;;1.58;;
21645;SDS011;10984;45.712;4.800;2023-02-04T15:00:16;3.83;;;1.60;;
21645;SDS011;10984;45.712;4.800;2023-02-04T15:02:42;3.92;;;1.80;;
21645;SDS011;10984;45.712;4.800;2023-02-04T15:05:08;3.70;;;1.83;;
21645;SDS011;10984;45.712;4.800;2023-02-04T15:07:34;4.70;;;1.83;;
21645;SDS011;10984;45.712;4.800;2023-02-04T15:10:00;3.80;;;1.95;;
21645;SDS011;10984;45.712;4.800;2023-02-04T15:12:26;4.20;;;2.00;;
21645;SDS011;10984;45.712;4.800;2023-02-04T15:14:51;4.20;;;1.80;;
21645;SDS011;10984;45.712;4.800;2023-02-04T15:17:17;3.55;;;1.67;;
21645;SDS011;10984;45.712;4.800;2023-02-04T15:19:43;3.28;;;1.90;;
21645;SDS011;10984;45.712;4.800;2023-02-04T15:22:09;4.53;;;2.03;;
21645;SDS011;10984;45.712;4.800;2023-02-04T15:24:36;3.17;;;1.67;;
21645;SDS011;10984;45.712;4.800;2023-02-04T15:27:03;4.63;;;2.05;;
21645;SDS011;10984;45.712;4.800;2023-02-04T15:29:28;4.57;;;2.28;;
21645;SDS011;10984;45.712;4.800;2023-02-04T15:31:54;4.70;;;2.35;;
21645;SDS011;10984;45.712;4.800;2023-02-04T15:34:20;6.10;;;2.50;;
21645;SDS011;10984;45.712;4.800;2023-02-04T15:36:46;4.70;;;2.58;;
21645;SDS011;10984;45.712;4.800;2023-02-04T15:39:12;4.50;;;2.10;;
21645;SDS011;10984;45.712;4.800;2023-02-04T15:41:37;4.40;;;2.10;;
21645;SDS011;10984;45.712;4.800;2023-02-04T15:44:03;3.65;;;2.17;;
21645;SDS011;10984;45.712;4.800;2023-02-04T15:46:30;5.90;;;2.70;;
21645;SDS011;10984;45.712;4.800;2023-02-04T15:48:56;4.32;;;2.33;;
21645;SDS011;10984;45.712;4.800;2023-02-04T15:51:22;4.05;;;2.10;;
21645;SDS011;10984;45.712;4.800;2023-02-04T15:53:48;5.82;;;3.08;;
21645;SDS011;10984;45.712;4.800;2023-02-04T15:56:13;4.38;;;2.45;;